Time;durP1;ratioP1;P1;durP2;ratioP2;P2;SDS_P1;SDS_P2;PMS_P1;PMS_P2;Temp;Humidity;BMP_temperature;BMP_pressure;BME280_temperature;BME280_humidity;BME280_pressure;Samples;Min_cycle;Max_cycle;Signal;HPM_P1;HPM_P2
2023/10/02 00:00:18;;;;;;;23.08;11.80;;;;;;;;;;6262254;28;21300;-59
2023/10/02 00:03:40;;;;;;;26.48;12.65;;;;;;;;;;6263827;28;20045;-59
2023/10/02 00:06:40;;;;;;;34.97;13.50;;;;;;;;;;6265225;28;20088;-59
2023/10/02 00:09:49;;;;;;;30.23;13.23;;;;;;;;;;6264325;28;20305;-59
2023/10/02 00:12:58;;;;;;;29.40;14.65;;;;;;;;;;6263551;28;20059;-59
2023/10/02 00:15:59;;;;;;;28.23;13.55;;;;;;;;;;6264987;28;20471;-59
2023/10/02 00:19:18;;;;;;;30.73;13.98;;;;;;;;;;6264704;28;20033;-59
2023/10/02 00:22:53;;;;;;;29.25;13.27;;;;;;;;;;6264487;28;20044;-59
2023/10/02 00:25:52;;;;;;;27.40;13.38;;;;;;;;;;6261947;28;20459;-59
2023/10/02 00:28:52;;;;;;;31.05;14.07;;;;;;;;;;6263959;28;20045;-60
2023/10/02 00:31:53;;;;;;;30.73;14.48;;;;;;;;;;6263537;28;20083;-59
2023/10/02 00:34:55;;;;;;;32.03;15.20;;;;;;;;;;6263352;28;20134;-60
2023/10/02 00:37:57;;;;;;;32.00;14.68;;;;;;;;;;6263139;28;20045;-60
2023/10/02 00:40:58;;;;;;;28.30;14.23;;;;;;;;;;6263949;28;20441;-60
2023/10/02 00:43:58;;;;;;;34.13;14.55;;;;;;;;;;6257199;28;20053;-61
2023/10/02 00:47:00;;;;;;;28.27;14.15;;;;;;;;;;6260026;28;20056;-60
2023/10/02 00:50:08;;;;;;;27.33;13.82;;;;;;;;;;6261971;28;20049;-60
2023/10/02 00:53:08;;;;;;;28.58;13.05;;;;;;;;;;6263108;28;20049;-60
2023/10/02 00:56:23;;;;;;;28.77;13.73;;;;;;;;;;6264105;28;20045;-60
2023/10/02 00:59:24;;;;;;;26.17;13.32;;;;;;;;;;6263362;28;20522;-59
2023/10/02 01:02:25;;;;;;;27.30;13.77;;;;;;;;;;6262234;28;20140;-60
2023/10/02 01:05:31;;;;;;;29.42;13.77;;;;;;;;;;6260771;28;20649;-59
2023/10/02 01:08:49;;;;;;;29.67;14.40;;;;;;;;;;6262770;28;20611;-59
2023/10/02 01:11:49;;;;;;;30.63;13.77;;;;;;;;;;6262162;28;20282;-60
2023/10/02 01:17:51;;;;;;;26.63;13.07;;;;;;;;;;6264435;28;20049;-59
2023/10/02 01:20:53;;;;;;;25.30;12.60;;;;;;;;;;6263457;28;20065;-60
2023/10/02 01:24:09;;;;;;;26.80;13.73;;;;;;;;;;6262388;28;20060;-59
2023/10/02 01:27:11;;;;;;;24.52;13.18;;;;;;;;;;6264038;28;20045;-60
2023/10/02 01:30:15;;;;;;;28.15;13.52;;;;;;;;;;6261961;28;20053;-60
2023/10/02 01:33:22;;;;;;;31.55;14.23;;;;;;;;;;6263213;28;20595;-59
2023/10/02 01:36:28;;;;;;;32.47;15.02;;;;;;;;;;6264717;28;20059;-60
2023/10/02 01:39:28;;;;;;;33.45;15.98;;;;;;;;;;6265077;28;20128;-59
2023/10/02 01:42:29;;;;;;;29.15;14.02;;;;;;;;;;6266305;28;20439;-59
2023/10/02 01:45:34;;;;;;;30.83;14.35;;;;;;;;;;6265232;28;20040;-59
2023/10/02 01:48:44;;;;;;;33.00;15.52;;;;;;;;;;6266733;28;20122;-60
2023/10/02 01:51:50;;;;;;;28.65;14.23;;;;;;;;;;6264136;28;20549;-59
2023/10/02 01:54:51;;;;;;;30.63;14.52;;;;;;;;;;6266476;28;20049;-60
2023/10/02 01:57:52;;;;;;;39.80;15.50;;;;;;;;;;6267844;28;20053;-60
2023/10/02 02:00:52;;;;;;;34.20;14.35;;;;;;;;;;6265697;28;20057;-60
2023/10/02 02:03:55;;;;;;;29.70;14.18;;;;;;;;;;6265976;28;20045;-60
2023/10/02 02:06:57;;;;;;;28.27;14.80;;;;;;;;;;6266150;28;20053;-59
2023/10/02 02:10:01;;;;;;;31.52;14.35;;;;;;;;;;6267022;28;20044;-59
2023/10/02 02:13:02;;;;;;;26.77;13.40;;;;;;;;;;6254624;28;20498;-60
2023/10/02 02:16:09;;;;;;;29.40;14.45;;;;;;;;;;6266986;28;20087;-60
2023/10/02 02:19:12;;;;;;;29.88;13.50;;;;;;;;;;6267031;28;20106;-60
2023/10/02 02:22:12;;;;;;;32.33;14.75;;;;;;;;;;6265267;28;20446;-60
2023/10/02 02:25:13;;;;;;;35.20;14.25;;;;;;;;;;6267044;28;20053;-59
2023/10/02 02:28:14;;;;;;;30.13;14.02;;;;;;;;;;6265098;28;20049;-60
2023/10/02 02:31:29;;;;;;;28.23;14.43;;;;;;;;;;6264130;28;20045;-60
2023/10/02 02:34:30;;;;;;;33.42;14.88;;;;;;;;;;6266207;28;20385;-59
2023/10/02 02:37:32;;;;;;;30.75;15.23;;;;;;;;;;6266899;28;20049;-59
2023/10/02 02:40:33;;;;;;;34.85;15.60;;;;;;;;;;6264346;28;20075;-58
2023/10/02 02:43:37;;;;;;;30.75;15.10;;;;;;;;;;6262288;28;20045;-60
2023/10/02 02:46:53;;;;;;;32.08;16.20;;;;;;;;;;6268216;28;20076;-60
2023/10/02 02:49:59;;;;;;;34.78;15.23;;;;;;;;;;6265528;28;20112;-60
2023/10/02 02:56:22;;;;;;;29.70;16.27;;;;;;;;;;6265542;28;21975;-59
2023/10/02 02:59:27;;;;;;;32.88;16.00;;;;;;;;;;6266180;28;20202;-59
2023/10/02 03:02:28;;;;;;;30.90;16.25;;;;;;;;;;6265448;28;20045;-60
2023/10/02 03:05:38;;;;;;;33.63;15.60;;;;;;;;;;6264242;28;20037;-59
2023/10/02 03:08:38;;;;;;;32.65;15.68;;;;;;;;;;6264500;28;20049;-59
2023/10/02 03:11:40;;;;;;;32.08;16.05;;;;;;;;;;6265785;28;20587;-59
2023/10/02 03:14:40;;;;;;;36.17;16.52;;;;;;;;;;6265069;28;20116;-59
2023/10/02 03:17:43;;;;;;;34.42;17.40;;;;;;;;;;6265273;28;20076;-61
2023/10/02 03:20:44;;;;;;;36.22;17.63;;;;;;;;;;6265525;28;20049;-60
2023/10/02 03:23:44;;;;;;;34.42;17.52;;;;;;;;;;6260887;28;20053;-60
2023/10/02 03:26:52;;;;;;;34.65;17.88;;;;;;;;;;6264315;28;20044;-60
2023/10/02 03:29:53;;;;;;;33.20;17.27;;;;;;;;;;6263873;28;20143;-60
2023/10/02 03:32:54;;;;;;;37.88;18.83;;;;;;;;;;6261719;28;20115;-59
2023/10/02 03:35:58;;;;;;;39.00;18.65;;;;;;;;;;6264419;28;20037;-59
2023/10/02 03:39:23;;;;;;;39.10;17.92;;;;;;;;;;6264714;28;20048;-59
2023/10/02 03:42:22;;;;;;;40.42;19.25;;;;;;;;;;6263750;28;20512;-59
2023/10/02 03:45:38;;;;;;;42.42;19.90;;;;;;;;;;6263027;28;20492;-59
2023/10/02 03:48:40;;;;;;;36.55;17.33;;;;;;;;;;6260956;28;20481;-59
2023/10/02 03:51:44;;;;;;;32.70;17.35;;;;;;;;;;6264616;28;20811;-60
2023/10/02 03:54:46;;;;;;;33.95;16.67;;;;;;;;;;6265305;28;20056;-59
2023/10/02 03:57:52;;;;;;;36.13;17.42;;;;;;;;;;6264445;28;20565;-59
2023/10/02 04:00:54;;;;;;;35.10;17.13;;;;;;;;;;6257756;28;20457;-59
2023/10/02 04:07:13;;;;;;;36.15;16.48;;;;;;;;;;6259584;28;20385;-60
2023/10/02 04:10:17;;;;;;;33.97;16.95;;;;;;;;;;6264804;28;20106;-60
2023/10/02 04:13:25;;;;;;;30.08;16.63;;;;;;;;;;6264722;28;20055;-59
2023/10/02 04:16:28;;;;;;;38.78;18.60;;;;;;;;;;6262792;28;20434;-60
2023/10/02 04:19:29;;;;;;;39.75;18.33;;;;;;;;;;6264048;28;20045;-62
2023/10/02 04:22:31;;;;;;;33.47;16.08;;;;;;;;;;6264073;28;20476;-60
2023/10/02 04:25:35;;;;;;;34.20;17.00;;;;;;;;;;6263331;28;20048;-60
2023/10/02 04:28:49;;;;;;;36.72;17.02;;;;;;;;;;6261853;28;20056;-62
2023/10/02 04:32:12;;;;;;;35.28;17.25;;;;;;;;;;6261093;28;20048;-60
2023/10/02 04:38:55;;;;;;;36.30;16.27;;;;;;;;;;6262150;28;19928;-65
2023/10/02 04:42:12;;;;;;;37.58;17.33;;;;;;;;;;6252858;28;20045;-68
2023/10/02 04:45:21;;;;;;;36.92;17.40;;;;;;;;;;6259473;28;20045;-67
2023/10/02 04:48:27;;;;;;;40.33;17.33;;;;;;;;;;6258523;28;20053;-60
2023/10/02 04:51:28;;;;;;;36.75;16.85;;;;;;;;;;6260112;28;20041;-63
2023/10/02 04:54:30;;;;;;;38.30;17.50;;;;;;;;;;6254160;28;20045;-61
2023/10/02 04:57:34;;;;;;;36.00;17.58;;;;;;;;;;6259063;28;20583;-60
2023/10/02 05:00:38;;;;;;;30.90;16.58;;;;;;;;;;6260920;28;20151;-60
2023/10/02 05:03:49;;;;;;;36.67;17.30;;;;;;;;;;6258759;28;20520;-64
2023/10/02 05:06:52;;;;;;;35.42;16.85;;;;;;;;;;6261584;28;20048;-66
2023/10/02 05:09:53;;;;;;;37.65;16.55;;;;;;;;;;6263863;28;20045;-67
2023/10/02 05:12:53;;;;;;;37.28;17.95;;;;;;;;;;6264952;28;20049;-63
2023/10/02 05:16:07;;;;;;;35.92;16.30;;;;;;;;;;6265940;28;20555;-67
2023/10/02 05:19:08;;;;;;;37.85;16.65;;;;;;;;;;6253533;28;20041;-68
2023/10/02 05:22:09;;;;;;;;;;;;;;;;;;6266370;28;20043;-67
2023/10/02 05:25:10;;;;;;;31.77;15.32;;;;;;;;;;6265652;28;19925;-66
2023/10/02 05:28:11;;;;;;;33.75;17.05;;;;;;;;;;6266793;28;20049;-63
2023/10/02 05:31:15;;;;;;;34.08;17.15;;;;;;;;;;6268275;28;20048;-67
2023/10/02 05:34:23;;;;;;;35.80;17.50;;;;;;;;;;6268194;28;20488;-64
2023/10/02 05:37:23;;;;;;;33.75;16.65;;;;;;;;;;6266620;28;20049;-65
2023/10/02 05:40:37;;;;;;;38.00;17.33;;;;;;;;;;6267595;28;20087;-65
2023/10/02 05:43:55;;;;;;;33.47;16.77;;;;;;;;;;6268080;28;20049;-67
2023/10/02 05:46:57;;;;;;;42.50;17.88;;;;;;;;;;6267066;28;20052;-66
2023/10/02 05:50:00;;;;;;;38.10;17.13;;;;;;;;;;6265346;28;20553;-67
2023/10/02 05:53:04;;;;;;;37.88;16.77;;;;;;;;;;6266197;28;20040;-66
2023/10/02 05:56:05;;;;;;;37.78;17.55;;;;;;;;;;6267242;28;20055;-64
2023/10/02 05:59:05;;;;;;;34.05;16.75;;;;;;;;;;6266694;28;20480;-68
2023/10/02 06:02:11;;;;;;;36.15;17.27;;;;;;;;;;6256430;28;20061;-61
2023/10/02 06:05:12;;;;;;;37.35;16.25;;;;;;;;;;6268139;28;20071;-66
2023/10/02 06:08:16;;;;;;;28.33;15.43;;;;;;;;;;6264931;28;20562;-65
2023/10/02 06:11:28;;;;;;;34.92;16.35;;;;;;;;;;6265971;28;20041;-64
2023/10/02 06:14:38;;;;;;;;;;;;;;;;;;6265422;28;20053;-68
2023/10/02 06:17:43;;;;;;;28.67;13.75;;;;;;;;;;6266204;28;19925;-63
2023/10/02 06:20:57;;;;;;;30.92;14.23;;;;;;;;;;6265860;28;20373;-68
2023/10/02 06:24:01;;;;;;;29.45;13.55;;;;;;;;;;6262655;28;20052;-67
2023/10/02 06:27:12;;;;;;;28.05;12.77;;;;;;;;;;6264296;28;20064;-63
2023/10/02 06:30:16;;;;;;;29.42;12.65;;;;;;;;;;6262464;28;20052;-67
2023/10/02 06:33:21;;;;;;;29.92;13.35;;;;;;;;;;6263673;28;20045;-68
2023/10/02 06:36:22;;;;;;;32.88;14.70;;;;;;;;;;6263516;28;20381;-66
2023/10/02 06:39:22;;;;;;;30.75;13.23;;;;;;;;;;6265680;28;20040;-68
2023/10/02 06:42:23;;;;;;;29.42;11.93;;;;;;;;;;6261892;28;20084;-66
2023/10/02 06:45:26;;;;;;;32.92;12.25;;;;;;;;;;6261846;28;20052;-68
2023/10/02 06:48:27;;;;;;;32.60;12.77;;;;;;;;;;6258191;28;20485;-67
2023/10/02 06:51:28;;;;;;;27.30;12.27;;;;;;;;;;6259863;28;20106;-68
2023/10/02 06:54:33;;;;;;;24.95;12.75;;;;;;;;;;6261699;28;20053;-66
2023/10/02 06:57:36;;;;;;;31.45;15.30;;;;;;;;;;6262025;28;20037;-67
2023/10/02 07:00:54;;;;;;;33.00;14.23;;;;;;;;;;6264068;28;20102;-67
2023/10/02 07:03:56;;;;;;;29.38;13.40;;;;;;;;;;6263638;28;20049;-67
2023/10/02 07:07:03;;;;;;;28.70;12.68;;;;;;;;;;6262201;28;20556;-63
2023/10/02 07:10:07;;;;;;;28.23;12.52;;;;;;;;;;6262742;28;20049;-64
2023/10/02 07:13:18;;;;;;;25.13;10.85;;;;;;;;;;6265065;28;20143;-63
2023/10/02 07:16:19;;;;;;;22.00;11.17;;;;;;;;;;6256714;28;20401;-67
2023/10/02 07:19:38;;;;;;;27.30;10.48;;;;;;;;;;6265020;28;20041;-67
2023/10/02 07:22:40;;;;;;;23.00;10.52;;;;;;;;;;6263018;28;20048;-66
2023/10/02 07:25:50;;;;;;;28.55;10.80;;;;;;;;;;6263924;28;20052;-67
2023/10/02 07:28:50;;;;;;;25.50;10.60;;;;;;;;;;6263355;28;20476;-68
2023/10/02 07:31:51;;;;;;;24.05;10.07;;;;;;;;;;6263591;28;20061;-65
2023/10/02 07:34:53;;;;;;;25.27;10.07;;;;;;;;;;6262398;28;20052;-65
2023/10/02 07:38:00;;;;;;;25.63;10.70;;;;;;;;;;6263444;28;20051;-66
2023/10/02 07:41:06;;;;;;;27.52;9.95;;;;;;;;;;6261539;28;20187;-67
2023/10/02 07:44:10;;;;;;;24.58;10.18;;;;;;;;;;6261360;28;20202;-67
2023/10/02 07:47:19;;;;;;;26.40;11.50;;;;;;;;;;6262045;28;20045;-65
2023/10/02 07:50:24;;;;;;;27.98;9.88;;;;;;;;;;6256400;28;20041;-63
2023/10/02 07:53:38;;;;;;;21.90;10.10;;;;;;;;;;6260264;28;20049;-66
2023/10/02 07:56:41;;;;;;;30.42;9.48;;;;;;;;;;6262223;28;20469;-66
2023/10/02 07:59:43;;;;;;;22.95;9.52;;;;;;;;;;6263132;28;20130;-67
2023/10/02 08:02:44;;;;;;;25.95;10.55;;;;;;;;;;6261075;28;20049;-68
2023/10/02 08:05:45;;;;;;;29.07;12.43;;;;;;;;;;6262211;28;20052;-64
2023/10/02 08:09:35;;;;;;;34.63;12.13;;;;;;;;;;6261675;28;20392;-67
2023/10/02 08:12:08;;;;;;;31.20;10.25;;;;;;;;;;6256783;28;20040;-65
2023/10/02 08:15:32;;;;;;;23.77;9.98;;;;;;;;;;6260838;28;20472;-67
2023/10/02 08:18:33;;;;;;;29.67;10.18;;;;;;;;;;6258770;28;20040;-66
2023/10/02 08:21:35;;;;;;;35.70;10.23;;;;;;;;;;6262077;28;20049;-67
2023/10/02 08:24:37;;;;;;;22.92;9.23;;;;;;;;;;6261189;28;20067;-65
2023/10/02 08:27:57;;;;;;;22.73;9.60;;;;;;;;;;6262994;28;20057;-67
2023/10/02 08:31:01;;;;;;;23.42;10.27;;;;;;;;;;6262612;28;20040;-67
2023/10/02 08:34:05;;;;;;;24.58;10.23;;;;;;;;;;6262449;28;20127;-67
2023/10/02 08:37:07;;;;;;;28.55;10.13;;;;;;;;;;6262488;28;20037;-64
2023/10/02 08:40:09;;;;;;;26.42;10.05;;;;;;;;;;6262445;28;20063;-67
2023/10/02 08:43:09;;;;;;;27.63;10.00;;;;;;;;;;6255125;28;20053;-64
2023/10/02 08:46:28;;;;;;;22.05;9.60;;;;;;;;;;6261408;28;20049;-67
2023/10/02 08:49:30;;;;;;;24.02;9.63;;;;;;;;;;6259241;28;20385;-67
2023/10/02 08:52:42;;;;;;;20.55;8.93;;;;;;;;;;6265755;28;20041;-64
2023/10/02 08:58:46;;;;;;;26.73;9.25;;;;;;;;;;6265523;28;20064;-66
2023/10/02 09:01:50;;;;;;;20.65;8.52;;;;;;;;;;6266171;28;20057;-67
2023/10/02 09:04:53;;;;;;;20.85;8.25;;;;;;;;;;6264909;28;20044;-67
2023/10/02 09:11:00;;;;;;;16.55;7.65;;;;;;;;;;6266626;28;20045;-64
2023/10/02 09:14:15;;;;;;;17.70;7.03;;;;;;;;;;6265238;28;20041;-67
2023/10/02 09:17:17;;;;;;;20.67;6.78;;;;;;;;;;6265810;28;20801;-67
2023/10/02 09:20:33;;;;;;;19.33;6.88;;;;;;;;;;6263398;28;20313;-67
2023/10/02 09:23:34;;;;;;;17.75;7.13;;;;;;;;;;6264107;28;20148;-67
2023/10/02 09:26:43;;;;;;;22.45;7.10;;;;;;;;;;6264731;28;20060;-64
2023/10/02 09:29:45;;;;;;;19.02;6.65;;;;;;;;;;6263848;28;20570;-67
2023/10/02 09:32:49;;;;;;;17.30;6.15;;;;;;;;;;6266666;28;20122;-67
2023/10/02 09:35:52;;;;;;;18.10;6.90;;;;;;;;;;6267467;28;20040;-67
2023/10/02 09:38:55;;;;;;;16.67;6.68;;;;;;;;;;6264249;28;20041;-67
2023/10/02 09:42:05;;;;;;;16.02;6.57;;;;;;;;;;6263128;28;20044;-67
2023/10/02 09:45:08;;;;;;;19.45;7.05;;;;;;;;;;6264317;28;20067;-64
2023/10/02 09:48:46;;;;;;;17.88;6.43;;;;;;;;;;6264132;28;20045;-65
2023/10/02 09:52:10;;;;;;;19.63;6.80;;;;;;;;;;6264286;28;20037;-67
2023/10/02 09:55:19;;;;;;;17.83;6.88;;;;;;;;;;6264060;28;20043;-68
2023/10/02 09:58:28;;;;;;;19.27;6.50;;;;;;;;;;6263542;28;20459;-67
2023/10/02 10:11:18;;;;;;;20.77;7.22;;;;;;;;;;6263747;28;20168;-67
2023/10/02 10:14:37;;;;;;;17.10;6.43;;;;;;;;;;6265104;28;20048;-67
2023/10/02 10:17:49;;;;;;;15.52;6.60;;;;;;;;;;6262332;28;20059;-67
2023/10/02 10:20:54;;;;;;;18.27;6.50;;;;;;;;;;6263378;28;20716;-64
2023/10/02 10:24:34;;;;;;;20.58;6.18;;;;;;;;;;6265273;28;20048;-68
2023/10/02 10:27:38;;;;;;;15.82;5.88;;;;;;;;;;6261231;28;20521;-67
2023/10/02 10:30:39;;;;;;;14.13;6.20;;;;;;;;;;6264307;28;20048;-67
2023/10/02 10:33:40;;;;;;;18.50;6.93;;;;;;;;;;6264319;28;20073;-66
2023/10/02 10:36:41;;;;;;;16.47;6.47;;;;;;;;;;6265990;28;20041;-68
2023/10/02 10:39:53;;;;;;;15.18;6.10;;;;;;;;;;6265082;28;20442;-68
2023/10/02 10:42:59;;;;;;;;;;;;;;;;;;6263500;28;20076;-68
2023/10/02 10:46:12;;;;;;;19.98;5.97;;;;;;;;;;6261539;28;20371;-61
2023/10/02 10:49:19;;;;;;;16.27;6.53;;;;;;;;;;6262644;28;20136;-68
2023/10/02 10:52:34;;;;;;;14.73;5.43;;;;;;;;;;6261297;28;20044;-68
2023/10/02 10:55:35;;;;;;;15.63;5.68;;;;;;;;;;6260719;28;20144;-67
2023/10/02 10:58:35;;;;;;;16.73;6.37;;;;;;;;;;6262990;28;20569;-68
2023/10/02 11:01:37;;;;;;;16.30;5.37;;;;;;;;;;6264307;28;20068;-67
2023/10/02 11:04:45;;;;;;;21.48;5.85;;;;;;;;;;6261883;28;20052;-66
2023/10/02 11:07:47;;;;;;;13.10;5.38;;;;;;;;;;6259989;28;20041;-67
2023/10/02 11:10:48;;;;;;;14.85;5.65;;;;;;;;;;6262627;28;20490;-68
2023/10/02 11:13:50;;;;;;;12.30;5.27;;;;;;;;;;6265447;28;20049;-68
2023/10/02 11:16:53;;;;;;;17.02;5.57;;;;;;;;;;6260609;28;20052;-67
2023/10/02 11:19:57;;;;;;;13.13;5.22;;;;;;;;;;6263512;28;20055;-65
2023/10/02 11:23:03;;;;;;;16.52;5.20;;;;;;;;;;6261860;28;20125;-68
2023/10/02 11:26:14;;;;;;;13.50;5.13;;;;;;;;;;6255795;28;20056;-62
2023/10/02 11:29:22;;;;;;;18.73;5.70;;;;;;;;;;6246302;28;20045;-66
2023/10/02 11:32:24;;;;;;;17.48;5.30;;;;;;;;;;6252429;28;20076;-67
2023/10/02 11:35:28;;;;;;;15.45;5.57;;;;;;;;;;6253738;28;20047;-66
2023/10/02 11:38:29;;;;;;;14.65;5.82;;;;;;;;;;6253472;28;20052;-65
2023/10/02 11:41:29;;;;;;;16.33;5.80;;;;;;;;;;6252345;28;20535;-65
2023/10/02 11:44:30;;;;;;;13.43;5.30;;;;;;;;;;6253005;28;20053;-68
2023/10/02 11:47:31;;;;;;;14.17;5.47;;;;;;;;;;6247561;28;20051;-67
2023/10/02 11:50:31;;;;;;;18.83;5.93;;;;;;;;;;6253593;28;20049;-67
2023/10/02 11:53:32;;;;;;;16.03;6.17;;;;;;;;;;6251034;28;20083;-66
2023/10/02 11:56:34;;;;;;;18.03;6.40;;;;;;;;;;6247203;28;20689;-65
2023/10/02 11:59:36;;;;;;;17.75;6.40;;;;;;;;;;6252321;28;20492;-68
2023/10/02 12:02:37;;;;;;;14.32;5.80;;;;;;;;;;6252434;28;20110;-66
2023/10/02 12:05:38;;;;;;;15.10;5.80;;;;;;;;;;6253908;28;20056;-67
2023/10/02 12:08:38;;;;;;;14.17;5.83;;;;;;;;;;6251017;28;20484;-62
2023/10/02 12:11:40;;;;;;;19.03;6.47;;;;;;;;;;6254045;28;20075;-67
2023/10/02 12:14:42;;;;;;;14.77;6.03;;;;;;;;;;6254736;28;20550;-66
2023/10/02 12:17:43;;;;;;;15.23;5.93;;;;;;;;;;6248496;28;20057;-65
2023/10/02 12:20:44;;;;;;;15.95;6.47;;;;;;;;;;6253212;28;20056;-67
2023/10/02 12:23:46;;;;;;;16.33;6.33;;;;;;;;;;6250655;28;20049;-65
2023/10/02 12:26:47;;;;;;;;;;;;;;;;;;6249766;28;20049;-66
2023/10/02 12:29:50;;;;;;;16.60;6.30;;;;;;;;;;6253613;28;19935;-65
2023/10/02 12:32:52;;;;;;;14.68;6.10;;;;;;;;;;6253918;28;20083;-65
2023/10/02 12:35:54;;;;;;;16.60;5.80;;;;;;;;;;6252457;28;20045;-65
2023/10/02 12:38:54;;;;;;;13.50;5.25;;;;;;;;;;6249609;28;20044;-66
2023/10/02 12:41:56;;;;;;;;;;;;;;;;;;6251967;28;20056;-65
2023/10/02 12:44:57;;;;;;;15.90;6.03;;;;;;;;;;6249175;28;19929;-66
2023/10/02 12:47:57;;;;;;;10.43;4.93;;;;;;;;;;6249927;28;20135;-66
2023/10/02 12:50:58;;;;;;;16.17;5.77;;;;;;;;;;6251611;28;20045;-66
2023/10/02 12:53:58;;;;;;;19.20;6.33;;;;;;;;;;6251792;28;20500;-64
2023/10/02 12:56:59;;;;;;;14.83;5.93;;;;;;;;;;6249581;28;20041;-64
2023/10/02 13:00:00;;;;;;;17.02;5.72;;;;;;;;;;6252440;28;20095;-63
2023/10/02 13:03:02;;;;;;;16.83;5.90;;;;;;;;;;6253165;28;20046;-65
2023/10/02 13:06:03;;;;;;;14.38;6.03;;;;;;;;;;6250700;28;20049;-69
2023/10/02 13:09:18;;;;;;;15.05;5.60;;;;;;;;;;6251654;28;20065;-68
2023/10/02 13:12:19;;;;;;;16.23;5.88;;;;;;;;;;6250749;28;20057;-64
2023/10/02 13:15:19;;;;;;;16.90;6.30;;;;;;;;;;6249628;28;20060;-62
2023/10/02 13:18:20;;;;;;;14.50;6.00;;;;;;;;;;6250759;28;20100;-67
2023/10/02 13:21:21;;;;;;;16.07;6.20;;;;;;;;;;6252616;28;20040;-64
2023/10/02 13:24:24;;;;;;;15.65;5.88;;;;;;;;;;6251021;28;20424;-71
2023/10/02 13:27:25;;;;;;;21.92;5.85;;;;;;;;;;6252788;28;20431;-66
2023/10/02 13:30:26;;;;;;;15.82;6.05;;;;;;;;;;6252148;28;20391;-64
2023/10/02 13:33:26;;;;;;;14.33;5.73;;;;;;;;;;6251996;28;20041;-63
2023/10/02 13:36:27;;;;;;;13.30;6.03;;;;;;;;;;6253458;28;20048;-66
2023/10/02 13:39:29;;;;;;;18.97;6.37;;;;;;;;;;6254527;28;20049;-68
2023/10/02 13:42:29;;;;;;;;;;;;;;;;;;6256375;28;20051;-66
2023/10/02 13:45:30;;;;;;;17.77;6.22;;;;;;;;;;6254608;28;19928;-67
2023/10/02 13:48:31;;;;;;;16.60;6.13;;;;;;;;;;6252416;28;20080;-67
2023/10/02 13:51:32;;;;;;;14.73;6.27;;;;;;;;;;6255947;28;20464;-69
2023/10/02 13:54:33;;;;;;;17.88;5.57;;;;;;;;;;6255758;28;20052;-64
2023/10/02 13:57:33;;;;;;;15.37;6.00;;;;;;;;;;6253063;28;20048;-67
2023/10/02 14:00:39;;;;;;;13.93;6.00;;;;;;;;;;6256586;28;20726;-67
2023/10/02 14:03:41;;;;;;;13.38;5.55;;;;;;;;;;6255869;28;20129;-67
2023/10/02 14:06:41;;;;;;;14.00;5.65;;;;;;;;;;6253492;28;20061;-66
2023/10/02 14:09:42;;;;;;;15.57;5.30;;;;;;;;;;6254768;28;20049;-68
2023/10/02 14:12:44;;;;;;;12.03;5.07;;;;;;;;;;6254834;28;20178;-67
2023/10/02 14:15:46;;;;;;;11.48;4.63;;;;;;;;;;6256261;28;20133;-68
2023/10/02 14:18:55;;;;;;;10.68;4.57;;;;;;;;;;6254880;28;20049;-67
2023/10/02 14:21:56;;;;;;;14.63;6.13;;;;;;;;;;6257126;28;20131;-68
2023/10/02 14:24:58;;;;;;;17.37;5.43;;;;;;;;;;6257203;28;20496;-67
2023/10/02 14:27:58;;;;;;;14.60;5.65;;;;;;;;;;6252663;28;20053;-65
2023/10/02 14:31:00;;;;;;;12.63;5.63;;;;;;;;;;6255748;28;20075;-69
2023/10/02 14:34:00;;;;;;;14.40;5.93;;;;;;;;;;6255116;28;20512;-64
2023/10/02 14:37:03;;;;;;;16.98;5.82;;;;;;;;;;6256383;28;20167;-68
2023/10/02 14:40:09;;;;;;;13.60;5.45;;;;;;;;;;6253840;28;20484;-69
2023/10/02 14:43:12;;;;;;;15.23;5.88;;;;;;;;;;6255919;28;20045;-68
2023/10/02 14:46:12;;;;;;;13.77;5.38;;;;;;;;;;6253920;28;20052;-64
2023/10/02 14:49:13;;;;;;;17.63;5.40;;;;;;;;;;6253601;28;20088;-68
2023/10/02 14:52:13;;;;;;;12.37;5.50;;;;;;;;;;6257840;28;20532;-69
2023/10/02 14:55:17;;;;;;;13.67;5.80;;;;;;;;;;6259480;28;20502;-68
2023/10/02 14:58:20;;;;;;;11.95;4.93;;;;;;;;;;6253547;28;20507;-69
2023/10/02 15:01:21;;;;;;;12.32;5.80;;;;;;;;;;6252229;28;20049;-67
2023/10/02 15:04:23;;;;;;;15.23;6.20;;;;;;;;;;6254273;28;20056;-64
2023/10/02 15:07:25;;;;;;;16.80;6.05;;;;;;;;;;6253269;28;20086;-67
2023/10/02 15:10:31;;;;;;;14.30;6.20;;;;;;;;;;6255131;28;20053;-63
2023/10/02 15:13:33;;;;;;;18.35;7.63;;;;;;;;;;6253162;28;20096;-66
2023/10/02 15:16:36;;;;;;;15.95;6.47;;;;;;;;;;6254936;28;20049;-67
2023/10/02 15:19:37;;;;;;;19.80;6.57;;;;;;;;;;6253950;28;20311;-67
2023/10/02 15:22:38;;;;;;;16.23;5.47;;;;;;;;;;6256878;28;20619;-64
2023/10/02 15:25:40;;;;;;;12.70;5.47;;;;;;;;;;6255096;28;20049;-65
2023/10/02 15:28:40;;;;;;;13.15;5.20;;;;;;;;;;6253437;28;20512;-66
2023/10/02 15:31:41;;;;;;;16.80;5.57;;;;;;;;;;6251829;28;20052;-67
2023/10/02 15:34:41;;;;;;;13.57;5.40;;;;;;;;;;6256827;28;20061;-69
2023/10/02 15:37:46;;;;;;;13.60;5.73;;;;;;;;;;6254942;28;20061;-68
2023/10/02 15:40:46;;;;;;;14.00;5.90;;;;;;;;;;6256568;28;20087;-71
2023/10/02 15:43:47;;;;;;;13.33;5.70;;;;;;;;;;6256869;28;20115;-69
2023/10/02 15:46:50;;;;;;;12.93;5.73;;;;;;;;;;6255742;28;20060;-72
2023/10/02 15:49:51;;;;;;;19.77;5.65;;;;;;;;;;6255986;28;20048;-69
2023/10/02 15:52:53;;;;;;;14.95;5.70;;;;;;;;;;6256108;28;20076;-65
2023/10/02 15:55:56;;;;;;;13.70;5.75;;;;;;;;;;6254745;28;20068;-65
2023/10/02 15:58:56;;;;;;;13.35;5.45;;;;;;;;;;6253056;28;20068;-67
2023/10/02 16:01:57;;;;;;;12.20;5.40;;;;;;;;;;6255413;28;20053;-66
2023/10/02 16:04:58;;;;;;;12.50;5.77;;;;;;;;;;6255607;28;20056;-68
2023/10/02 16:07:59;;;;;;;16.27;6.70;;;;;;;;;;6252554;28;20070;-64
2023/10/02 16:11:00;;;;;;;13.13;6.15;;;;;;;;;;6256706;28;20451;-63
2023/10/02 16:14:01;;;;;;;22.87;7.60;;;;;;;;;;6257903;28;20049;-66
2023/10/02 16:17:04;;;;;;;25.73;8.57;;;;;;;;;;6252000;28;20151;-68
2023/10/02 16:20:05;;;;;;;15.55;6.28;;;;;;;;;;6253270;28;20053;-66
2023/10/02 16:23:06;;;;;;;12.90;6.43;;;;;;;;;;6255931;28;20069;-69
2023/10/02 16:26:14;;;;;;;12.50;5.60;;;;;;;;;;6256185;28;20051;-65
2023/10/02 16:29:15;;;;;;;19.40;6.50;;;;;;;;;;6253972;28;20098;-66
2023/10/02 16:32:16;;;;;;;19.77;7.90;;;;;;;;;;6251771;28;20048;-66
2023/10/02 16:35:26;;;;;;;28.20;10.40;;;;;;;;;;6254458;28;20454;-67
2023/10/02 16:38:27;;;;;;;27.52;9.73;;;;;;;;;;6252279;28;20048;-66
2023/10/02 16:41:29;;;;;;;28.93;10.07;;;;;;;;;;6253860;28;20050;-65
2023/10/02 16:44:33;;;;;;;20.52;7.70;;;;;;;;;;6254412;28;20059;-67
2023/10/02 16:47:33;;;;;;;15.70;6.95;;;;;;;;;;6251217;28;20080;-67
2023/10/02 16:50:36;;;;;;;16.53;6.67;;;;;;;;;;6252717;28;20045;-66
2023/10/02 16:53:37;;;;;;;22.13;7.65;;;;;;;;;;6256160;28;20052;-66
2023/10/02 16:56:39;;;;;;;15.93;6.35;;;;;;;;;;6253554;28;20099;-65
2023/10/02 16:59:41;;;;;;;23.15;6.85;;;;;;;;;;6254485;28;20049;-66
2023/10/02 17:02:44;;;;;;;15.20;6.22;;;;;;;;;;6254703;28;20041;-65
2023/10/02 17:05:45;;;;;;;14.85;6.78;;;;;;;;;;6253925;28;20052;-66
2023/10/02 17:08:48;;;;;;;22.92;7.85;;;;;;;;;;6255285;28;20548;-66
2023/10/02 17:11:50;;;;;;;25.10;9.27;;;;;;;;;;6258861;28;20057;-66
2023/10/02 17:14:51;;;;;;;24.13;8.02;;;;;;;;;;6261159;28;20057;-64
2023/10/02 17:17:53;;;;;;;19.30;7.55;;;;;;;;;;6257200;28;20415;-66
2023/10/02 17:20:54;;;;;;;17.60;7.95;;;;;;;;;;6259308;28;20055;-65
2023/10/02 17:23:54;;;;;;;19.20;7.50;;;;;;;;;;6260733;28;20466;-65
2023/10/02 17:26:55;;;;;;;15.15;7.25;;;;;;;;;;6259826;28;20117;-63
2023/10/02 17:29:56;;;;;;;16.60;7.57;;;;;;;;;;6260904;28;20079;-64
2023/10/02 17:32:57;;;;;;;20.90;8.55;;;;;;;;;;6258901;28;20844;-67
2023/10/02 17:35:58;;;;;;;18.52;8.50;;;;;;;;;;6260048;28;20447;-63
2023/10/02 17:38:59;;;;;;;24.45;9.43;;;;;;;;;;6257354;28;20095;-64
2023/10/02 17:41:59;;;;;;;41.75;19.25;;;;;;;;;;6257633;28;20049;-64
2023/10/02 17:45:00;;;;;;;22.05;11.52;;;;;;;;;;6258407;28;20132;-65
2023/10/02 17:48:01;;;;;;;28.40;12.52;;;;;;;;;;6264112;28;20155;-65
2023/10/02 17:51:01;;;;;;;33.30;15.93;;;;;;;;;;6258309;28;20171;-65
2023/10/02 17:54:02;;;;;;;47.90;23.80;;;;;;;;;;6258196;28;20516;-64
2023/10/02 17:57:03;;;;;;;107.13;50.40;;;;;;;;;;6257929;28;20053;-64
2023/10/02 18:00:04;;;;;;;67.93;32.72;;;;;;;;;;6259825;28;20065;-65
2023/10/02 18:03:06;;;;;;;52.88;25.25;;;;;;;;;;6259082;28;20085;-64
2023/10/02 18:06:12;;;;;;;;;;;;;;;;;;6258258;28;20500;-65
2023/10/02 18:09:13;;;;;;;39.08;18.65;;;;;;;;;;6256854;28;20018;-64
2023/10/02 18:12:14;;;;;;;29.98;14.40;;;;;;;;;;6258842;28;20063;-63
2023/10/02 18:15:18;;;;;;;34.95;16.52;;;;;;;;;;6256988;28;20160;-65
2023/10/02 18:18:19;;;;;;;41.03;19.75;;;;;;;;;;6254326;28;20045;-63
2023/10/02 18:21:19;;;;;;;43.65;21.08;;;;;;;;;;6256792;28;20143;-65
2023/10/02 18:24:20;;;;;;;39.58;17.77;;;;;;;;;;6257150;28;20061;-67
2023/10/02 18:27:22;;;;;;;37.28;18.08;;;;;;;;;;6255711;28;20041;-62
2023/10/02 18:30:23;;;;;;;42.08;18.55;;;;;;;;;;6258168;28;20151;-65